Time;durP1;ratioP1;P1;durP2;ratioP2;P2;SDS_P1;SDS_P2;PMS_P1;PMS_P2;Temp;Humidity;BMP_temperature;BMP_pressure;BME280_temperature;BME280_humidity;BME280_pressure;Samples;Min_cycle;Max_cycle;Signal;HPM_P1;HPM_P2
2023/08/14 00:01:27;;;;;;;1.95;1.63;;;17.80;99.90;;;;;;5064002;28;20715;-66
2023/08/14 00:03:53;;;;;;;5.95;2.10;;;17.80;99.90;;;;;;5082309;27;20322;-66
2023/08/14 00:06:20;;;;;;;5.80;2.58;;;17.70;99.90;;;;;;5083921;28;20222;-66
2023/08/14 00:08:47;;;;;;;3.35;1.90;;;17.80;99.90;;;;;;5057701;28;20203;-66
2023/08/14 00:11:15;;;;;;;3.08;2.00;;;17.70;99.90;;;;;;5077882;28;20226;-66
2023/08/14 00:13:52;;;;;;;3.95;2.20;;;17.70;99.90;;;;;;5036464;28;20208;-66
2023/08/14 00:16:19;;;;;;;4.00;2.40;;;14.90;99.90;;;;;;5065233;27;20592;-66
2023/08/14 00:18:46;;;;;;;7.85;2.33;;;17.60;99.90;;;;;;5083936;28;20196;-66
2023/08/14 00:21:13;;;;;;;7.40;2.45;;;16.10;99.90;;;;;;5068148;27;20223;-66
2023/08/14 00:23:40;;;;;;;5.03;2.13;;;17.50;99.90;;;;;;5063417;27;20200;-66
2023/08/14 00:26:07;;;;;;;3.25;2.10;;;17.40;99.90;;;;;;5078005;27;20199;-66
2023/08/14 00:28:35;;;;;;;10.98;2.50;;;17.40;99.90;;;;;;5054227;28;20204;-66
2023/08/14 00:31:02;;;;;;;6.00;2.38;;;17.30;99.90;;;;;;5078988;27;20233;-66
2023/08/14 00:33:29;;;;;;;2.90;2.33;;;17.20;99.90;;;;;;5080142;27;20199;-66
2023/08/14 00:35:56;;;;;;;4.35;2.28;;;17.10;99.90;;;;;;5080727;28;20188;-66
2023/08/14 00:38:23;;;;;;;7.50;2.88;;;17.10;99.90;;;;;;5073195;27;20203;-66
2023/08/14 00:40:52;;;;;;;3.58;2.25;;;17.10;99.90;;;;;;5074751;27;20627;-66
2023/08/14 00:43:20;;;;;;;4.13;2.20;;;17.30;99.90;;;;;;5044385;28;20208;-66
2023/08/14 00:45:49;;;;;;;5.80;2.63;;;17.00;99.90;;;;;;5078462;28;20196;-66
2023/08/14 00:48:16;;;;;;;3.38;2.38;;;17.00;99.90;;;;;;5068594;28;20199;-66
2023/08/14 00:50:44;;;;;;;4.43;2.55;;;17.00;99.90;;;;;;5081686;27;20224;-66
2023/08/14 00:53:11;;;;;;;2.88;2.08;;;17.00;99.90;;;;;;5073018;27;20200;-66
2023/08/14 00:55:37;;;;;;;4.65;2.40;;;17.50;99.90;;;;;;5069589;28;20210;-66
2023/08/14 00:58:05;;;;;;;5.85;2.38;;;17.00;99.90;;;;;;5064744;28;20226;-66
2023/08/14 01:00:32;;;;;;;3.90;2.78;;;17.00;99.90;;;;;;5077020;28;20249;-66
2023/08/14 01:03:01;;;;;;;13.77;3.30;;;17.00;99.90;;;;;;5082281;27;20200;-66
2023/08/14 01:05:27;;;;;;;2.95;2.65;;;16.90;99.90;;;;;;5072195;28;20215;-66
2023/08/14 01:07:55;;;;;;;6.15;2.70;;;17.00;99.90;;;;;;5082855;28;20197;-66
2023/08/14 01:10:23;;;;;;;7.68;2.60;;;16.90;99.90;;;;;;5063671;28;20460;-66
2023/08/14 01:12:57;;;;;;;8.75;2.70;;;16.90;99.90;;;;;;5087634;28;20245;-66
2023/08/14 01:15:31;;;;;;;5.40;2.90;;;16.90;99.90;;;;;;5044072;28;20211;-66
2023/08/14 01:18:02;;;;;;;4.63;2.78;;;15.60;99.90;;;;;;5077748;28;20200;-66
2023/08/14 01:20:31;;;;;;;8.75;3.05;;;16.90;99.90;;;;;;5070232;28;20253;-66
2023/08/14 01:23:07;;;;;;;3.10;2.80;;;16.80;99.90;;;;;;5085544;28;20672;-66
2023/08/14 01:25:38;;;;;;;2.85;2.25;;;16.90;99.90;;;;;;5080969;28;20204;-66
2023/08/14 01:28:06;;;;;;;5.22;2.83;;;16.80;99.90;;;;;;5065335;28;20203;-66
2023/08/14 01:30:33;;;;;;;4.32;2.75;;;16.80;99.90;;;;;;5050767;28;20207;-66
2023/08/14 01:33:00;;;;;;;5.18;2.88;;;16.70;99.90;;;;;;5069053;28;21238;-66
2023/08/14 01:35:31;;;;;;;6.30;2.60;;;16.80;99.90;;;;;;5053470;28;20677;-66
2023/08/14 01:38:03;;;;;;;3.13;2.63;;;16.70;99.90;;;;;;5065829;28;20206;-66
2023/08/14 01:40:37;;;;;;;6.30;2.50;;;16.70;99.90;;;;;;5071246;28;20234;-66
2023/08/14 01:43:09;;;;;;;5.13;2.65;;;16.90;99.90;;;;;;5060572;28;20199;-66
2023/08/14 01:45:36;;;;;;;4.82;2.35;;;16.60;99.90;;;;;;5058994;28;21054;-66
2023/08/14 01:48:05;;;;;;;3.85;2.53;;;16.50;99.90;;;;;;5085972;28;20196;-66
2023/08/14 01:50:33;;;;;;;4.05;2.85;;;16.50;99.90;;;;;;5065154;28;20200;-66
2023/08/14 01:53:01;;;;;;;5.50;2.75;;;16.60;99.90;;;;;;5069910;28;20200;-66
2023/08/14 01:55:27;;;;;;;3.17;2.60;;;16.50;99.90;;;;;;5070637;28;20215;-66
2023/08/14 01:57:55;;;;;;;6.78;2.92;;;16.30;99.90;;;;;;5057081;28;21991;-66
2023/08/14 02:00:22;;;;;;;2.45;1.95;;;16.50;99.90;;;;;;5084529;28;20200;-66
2023/08/14 02:02:50;;;;;;;1.85;1.70;;;16.40;99.90;;;;;;5053572;28;20204;-66
2023/08/14 02:05:16;;;;;;;3.85;1.70;;;16.40;99.90;;;;;;5070436;28;20688;-66
2023/08/14 02:07:43;;;;;;;1.90;1.58;;;16.20;99.90;;;;;;5079599;28;20204;-66
2023/08/14 02:10:10;;;;;;;1.77;1.40;;;16.20;99.90;;;;;;5080683;28;20208;-66
2023/08/14 02:12:37;;;;;;;1.52;1.25;;;16.20;99.90;;;;;;5062407;27;20234;-66
2023/08/14 02:15:07;;;;;;;2.78;1.73;;;16.20;99.90;;;;;;5067717;28;20205;-66
2023/08/14 02:17:33;;;;;;;1.23;1.13;;;16.10;99.90;;;;;;5055134;28;20665;-66
2023/08/14 02:20:00;;;;;;;2.22;1.45;;;15.00;99.90;;;;;;5064452;28;20200;-66
2023/08/14 02:22:27;;;;;;;1.45;1.35;;;16.00;99.90;;;;;;5081469;28;20200;-66
2023/08/14 02:24:54;;;;;;;5.25;1.65;;;16.10;99.90;;;;;;5077740;27;20219;-66
2023/08/14 02:27:21;;;;;;;2.75;1.63;;;16.10;99.90;;;;;;5071479;28;20822;-66
2023/08/14 02:29:48;;;;;;;1.95;1.85;;;16.00;99.90;;;;;;5062906;27;20206;-66
2023/08/14 02:32:16;;;;;;;1.83;1.73;;;16.00;99.90;;;;;;5055801;27;20232;-66
2023/08/14 02:34:44;;;;;;;1.85;1.75;;;16.00;99.90;;;;;;5078132;27;20200;-66
2023/08/14 02:37:12;;;;;;;2.33;1.48;;;16.10;99.90;;;;;;5076723;28;20196;-66
2023/08/14 02:39:39;;;;;;;1.40;1.30;;;16.10;99.90;;;;;;5081305;28;20206;-66
2023/08/14 02:42:06;;;;;;;3.05;1.30;;;14.20;99.90;;;;;;5071872;27;20687;-67
2023/08/14 02:44:33;;;;;;;1.27;1.08;;;16.00;99.90;;;;;;5073161;28;20196;-66
2023/08/14 02:47:00;;;;;;;1.40;1.27;;;16.00;99.90;;;;;;5070430;27;20196;-66
2023/08/14 02:49:28;;;;;;;1.30;1.20;;;15.80;99.90;;;;;;5054972;28;20211;-66
2023/08/14 02:51:55;;;;;;;5.78;1.42;;;15.70;99.90;;;;;;5066797;27;20751;-66
2023/08/14 02:54:22;;;;;;;1.30;1.20;;;15.60;99.90;;;;;;5082671;28;20192;-66
2023/08/14 02:56:49;;;;;;;1.50;1.40;;;15.60;99.90;;;;;;5074980;28;20207;-66
2023/08/14 02:59:16;;;;;;;1.55;1.40;;;15.60;99.90;;;;;;5071939;27;20226;-66
2023/08/14 03:01:43;;;;;;;1.60;1.50;;;15.50;99.90;;;;;;5080175;28;20218;-67
2023/08/14 03:04:10;;;;;;;4.35;1.13;;;15.50;99.90;;;;;;5051042;27;20196;-66
2023/08/14 03:06:38;;;;;;;3.38;1.55;;;15.50;99.90;;;;;;5068864;28;20204;-66
2023/08/14 03:09:05;;;;;;;3.53;1.27;;;16.50;99.90;;;;;;5080589;28;20200;-66
2023/08/14 03:11:32;;;;;;;2.95;1.40;;;15.50;99.90;;;;;;5082543;27;20232;-66
2023/08/14 03:13:59;;;;;;;1.35;1.25;;;15.50;99.90;;;;;;5066894;28;20199;-66
2023/08/14 03:16:26;;;;;;;1.38;1.27;;;15.50;99.90;;;;;;5070974;28;20199;-66
2023/08/14 03:18:52;;;;;;;4.53;1.27;;;15.50;99.90;;;;;;5042953;27;21027;-66
2023/08/14 03:21:19;;;;;;;4.82;1.70;;;15.60;99.90;;;;;;5076551;27;20215;-66
2023/08/14 03:23:48;;;;;;;3.65;1.60;;;15.60;99.90;;;;;;5061188;28;20207;-66
2023/08/14 03:26:15;;;;;;;2.67;1.85;;;15.80;99.90;;;;;;5077907;27;20199;-66
2023/08/14 03:28:41;;;;;;;4.13;1.50;;;15.60;99.90;;;;;;5066938;27;20290;-66
2023/08/14 03:31:08;;;;;;;1.60;1.20;;;15.50;99.90;;;;;;5060836;28;20200;-66
2023/08/14 03:33:35;;;;;;;4.35;1.60;;;15.50;99.90;;;;;;5039168;28;21133;-66
2023/08/14 03:36:02;;;;;;;1.40;1.30;;;15.50;99.90;;;;;;5073528;28;20204;-66
2023/08/14 03:38:30;;;;;;;1.60;1.50;;;15.50;99.90;;;;;;5061480;27;20673;-66
2023/08/14 03:40:59;;;;;;;1.95;1.70;;;15.40;99.90;;;;;;5080045;27;20224;-66
2023/08/14 03:43:25;;;;;;;4.00;1.52;;;15.30;99.90;;;;;;5073272;27;20210;-66
2023/08/14 03:45:52;;;;;;;1.60;1.45;;;15.30;99.90;;;;;;5056775;28;20208;-66
2023/08/14 03:48:19;;;;;;;2.00;1.52;;;15.30;99.90;;;;;;5039148;28;20208;-66
2023/08/14 03:50:47;;;;;;;2.80;1.45;;;15.30;99.90;;;;;;5071824;28;20226;-66
2023/08/14 03:53:14;;;;;;;1.50;1.40;;;15.30;99.90;;;;;;5056284;28;20228;-66
2023/08/14 03:55:41;;;;;;;1.40;1.30;;;15.30;99.90;;;;;;5082335;28;20196;-66
2023/08/14 03:58:09;;;;;;;1.50;1.40;;;15.20;99.90;;;;;;5081841;28;20204;-66
2023/08/14 04:00:36;;;;;;;1.55;1.13;;;15.20;99.90;;;;;;5065977;28;20203;-66
2023/08/14 04:03:04;;;;;;;1.40;1.30;;;;;;;;;;5053903;27;20226;-66
2023/08/14 04:05:31;;;;;;;3.83;1.23;;;15.10;99.90;;;;;;5069743;28;20230;-66
2023/08/14 04:07:58;;;;;;;1.42;1.00;;;15.10;99.90;;;;;;5079799;27;20213;-66
2023/08/14 04:10:25;;;;;;;3.38;1.33;;;15.10;99.90;;;;;;5065185;27;20842;-65
2023/08/14 04:12:51;;;;;;;1.15;1.05;;;15.20;99.90;;;;;;5080967;27;20223;-66
2023/08/14 04:15:21;;;;;;;1.50;1.17;;;15.10;99.90;;;;;;5067905;27;20199;-66
2023/08/14 04:17:48;;;;;;;2.15;0.88;;;15.10;99.90;;;;;;5070352;28;20199;-66
2023/08/14 04:20:15;;;;;;;4.32;1.17;;;15.10;99.90;;;;;;5053762;28;22228;-66
2023/08/14 04:22:41;;;;;;;0.85;0.82;;;15.10;99.90;;;;;;5085268;28;20199;-65
2023/08/14 04:25:09;;;;;;;1.15;1.10;;;15.10;99.90;;;;;;5073748;28;20215;-65
2023/08/14 04:27:37;;;;;;;0.90;0.90;;;15.10;99.90;;;;;;5080348;28;20207;-66
2023/08/14 04:30:04;;;;;;;1.20;1.10;;;15.80;99.90;;;;;;5083140;27;20207;-66
2023/08/14 04:32:33;;;;;;;2.72;1.30;;;15.20;99.90;;;;;;5074638;28;20285;-66
2023/08/14 04:34:59;;;;;;;2.08;1.30;;;15.20;99.90;;;;;;5045334;28;20229;-66
2023/08/14 04:37:26;;;;;;;1.33;1.23;;;15.20;99.90;;;;;;5081779;28;20210;-66
2023/08/14 04:39:53;;;;;;;1.63;1.20;;;15.30;99.90;;;;;;5060937;28;20226;-66
2023/08/14 04:42:20;;;;;;;0.95;0.95;;;15.20;99.90;;;;;;5084767;28;20238;-66
2023/08/14 04:44:47;;;;;;;1.38;1.27;;;15.20;99.90;;;;;;5079655;27;20202;-65
2023/08/14 04:47:13;;;;;;;1.30;1.20;;;15.20;99.90;;;;;;5071827;27;20205;-66
2023/08/14 04:49:41;;;;;;;3.53;1.20;;;15.20;99.90;;;;;;5041279;28;21115;-66
2023/08/14 04:52:08;;;;;;;1.05;1.00;;;15.30;99.90;;;;;;5080054;28;20226;-66
2023/08/14 04:54:35;;;;;;;1.10;1.10;;;;;;;;;;5062693;28;20207;-66
2023/08/14 04:57:02;;;;;;;3.80;1.35;;;15.30;99.90;;;;;;5080665;27;20197;-66
2023/08/14 04:59:29;;;;;;;3.35;1.40;;;15.90;99.90;;;;;;5076584;28;20199;-66
2023/08/14 05:01:56;;;;;;;1.58;1.48;;;15.30;99.90;;;;;;5065129;28;20239;-65
2023/08/14 05:04:24;;;;;;;2.13;1.17;;;15.40;99.90;;;;;;5080576;28;20194;-66
2023/08/14 05:06:52;;;;;;;1.50;1.40;;;15.40;99.90;;;;;;5040502;28;21599;-66
2023/08/14 05:09:19;;;;;;;5.75;1.58;;;15.50;99.90;;;;;;5077031;27;20196;-66
2023/08/14 05:11:46;;;;;;;3.17;1.90;;;15.50;99.90;;;;;;5060808;27;20589;-66
2023/08/14 05:14:13;;;;;;;3.55;1.80;;;15.70;99.90;;;;;;5061817;28;20824;-66
2023/08/14 05:16:39;;;;;;;9.23;2.05;;;15.70;99.90;;;;;;5072546;28;20200;-65
2023/08/14 05:19:06;;;;;;;3.38;1.90;;;15.80;99.90;;;;;;5056768;28;20215;-65
2023/08/14 05:21:33;;;;;;;5.25;2.60;;;15.90;99.90;;;;;;5040554;28;20299;-65
2023/08/14 05:24:01;;;;;;;6.15;2.55;;;16.00;99.90;;;;;;5075125;28;20190;-65
2023/08/14 05:26:28;;;;;;;5.68;2.22;;;16.00;99.90;;;;;;5058168;28;20793;-66
2023/08/14 05:28:55;;;;;;;5.78;2.13;;;;;;;;;;5077928;28;20204;-65
2023/08/14 05:31:22;;;;;;;3.17;2.80;;;16.10;99.90;;;;;;5072923;28;20212;-66
2023/08/14 05:33:48;;;;;;;3.60;2.22;;;16.20;99.90;;;;;;5068000;28;20249;-66
2023/08/14 05:36:15;;;;;;;7.13;2.22;;;16.00;99.90;;;;;;5051110;28;20215;-65
2023/08/14 05:38:44;;;;;;;2.38;2.05;;;16.20;99.90;;;;;;5053778;28;20203;-65
2023/08/14 05:41:12;;;;;;;4.07;2.30;;;16.30;99.90;;;;;;5053775;28;20236;-66
2023/08/14 05:43:39;;;;;;;2.90;1.90;;;16.30;99.90;;;;;;5071509;28;20704;-65
2023/08/14 05:46:06;;;;;;;3.58;2.33;;;16.40;99.90;;;;;;5088657;27;20203;-66
2023/08/14 05:48:33;;;;;;;4.07;2.40;;;16.40;99.90;;;;;;5066480;27;20199;-65
2023/08/14 05:51:00;;;;;;;2.13;1.90;;;16.50;99.90;;;;;;5072491;27;20218;-66
2023/08/14 05:53:26;;;;;;;3.08;2.00;;;16.50;99.90;;;;;;5053022;28;20222;-66
2023/08/14 05:55:53;;;;;;;4.43;2.13;;;16.90;99.90;;;;;;5088406;27;21018;-66
2023/08/14 05:58:21;;;;;;;3.30;2.30;;;17.00;99.90;;;;;;5075001;28;20211;-66
2023/08/14 06:00:49;;;;;;;3.35;2.28;;;17.00;99.90;;;;;;5066788;27;20211;-66
2023/08/14 06:03:16;;;;;;;6.72;2.53;;;17.10;99.90;;;;;;5072195;28;20210;-66
2023/08/14 06:05:43;;;;;;;5.03;2.83;;;17.20;99.90;;;;;;5067813;27;20214;-66
2023/08/14 06:08:10;;;;;;;6.72;2.70;;;17.20;99.90;;;;;;5043066;28;20204;-66
2023/08/14 06:10:38;;;;;;;3.13;2.70;;;17.30;99.90;;;;;;5080159;28;20200;-66
2023/08/14 06:13:05;;;;;;;4.70;2.42;;;17.30;99.90;;;;;;5067347;28;20942;-66
2023/08/14 06:15:34;;;;;;;4.18;2.65;;;17.40;99.90;;;;;;5079940;27;20187;-66
2023/08/14 06:18:00;;;;;;;3.42;2.55;;;17.50;99.90;;;;;;5076107;27;20216;-66
2023/08/14 06:20:27;;;;;;;2.88;2.47;;;17.60;99.90;;;;;;5057545;27;20222;-67
2023/08/14 06:22:54;;;;;;;3.60;2.20;;;17.50;99.90;;;;;;5040427;27;20532;-67
2023/08/14 06:25:21;;;;;;;5.22;2.78;;;17.80;99.90;;;;;;5080829;27;20202;-67
2023/08/14 06:27:48;;;;;;;3.97;2.15;;;17.70;99.90;;;;;;5073143;27;20202;-66
2023/08/14 06:30:15;;;;;;;7.55;2.40;;;17.80;99.90;;;;;;5080002;27;20800;-67
2023/08/14 06:32:43;;;;;;;6.72;2.55;;;17.80;99.90;;;;;;5080784;27;20224;-66
2023/08/14 06:35:10;;;;;;;5.25;2.58;;;17.80;99.90;;;;;;5066250;28;20204;-67
2023/08/14 06:37:37;;;;;;;4.28;2.50;;;17.90;99.90;;;;;;5059962;27;20204;-66
2023/08/14 06:40:04;;;;;;;3.03;2.33;;;17.80;99.90;;;;;;5048668;27;20230;-67
2023/08/14 06:42:31;;;;;;;2.08;1.67;;;18.00;99.90;;;;;;5070774;28;20291;-67
2023/08/14 06:44:58;;;;;;;4.03;1.80;;;18.00;99.90;;;;;;5081396;28;20687;-66
2023/08/14 06:47:25;;;;;;;3.80;1.92;;;18.00;99.90;;;;;;5077976;28;20195;-66
2023/08/14 06:49:53;;;;;;;3.22;1.95;;;18.00;99.90;;;;;;5081064;28;20202;-66
2023/08/14 06:52:20;;;;;;;3.13;1.40;;;18.10;99.90;;;;;;5055596;28;20203;-66
2023/08/14 06:54:46;;;;;;;2.90;1.88;;;18.10;99.90;;;;;;5059556;28;20223;-67
2023/08/14 06:57:13;;;;;;;4.80;1.55;;;18.20;99.90;;;;;;5072784;28;20204;-66
2023/08/14 06:59:40;;;;;;;1.50;1.40;;;18.30;99.90;;;;;;5069892;28;20574;-66
2023/08/14 07:02:07;;;;;;;1.95;1.35;;;18.30;99.90;;;;;;5067235;28;20199;-67
2023/08/14 07:04:34;;;;;;;1.90;1.08;;;18.40;99.90;;;;;;5079092;28;20228;-67
2023/08/14 07:07:02;;;;;;;2.05;1.17;;;18.60;99.90;;;;;;5057809;28;20202;-66
2023/08/14 07:09:29;;;;;;;10.07;1.30;;;18.50;99.90;;;;;;5079834;28;20207;-66
2023/08/14 07:11:55;;;;;;;3.17;1.23;;;18.60;99.90;;;;;;5053965;28;20293;-66
2023/08/14 07:14:22;;;;;;;3.65;1.52;;;18.70;99.90;;;;;;5060311;28;20230;-67
2023/08/14 07:16:49;;;;;;;4.90;1.55;;;18.70;99.90;;;;;;5076702;28;20677;-66
2023/08/14 07:19:17;;;;;;;4.00;1.25;;;18.80;99.90;;;;;;5074110;28;20222;-66
2023/08/14 07:21:44;;;;;;;2.10;1.02;;;18.80;99.90;;;;;;5058714;28;20918;-66
2023/08/14 07:24:13;;;;;;;2.35;1.27;;;18.90;99.90;;;;;;5064350;28;20630;-67
2023/08/14 07:26:40;;;;;;;2.03;1.05;;;18.90;99.90;;;;;;5055076;28;20688;-67
2023/08/14 07:29:07;;;;;;;0.90;0.90;;;18.90;99.90;;;;;;5057384;28;20776;-67
2023/08/14 07:31:34;;;;;;;3.70;1.00;;;18.90;99.90;;;;;;5083238;28;20669;-66
2023/08/14 07:34:00;;;;;;;0.95;0.80;;;19.10;99.90;;;;;;5082954;28;20292;-67
2023/08/14 07:36:27;;;;;;;1.55;1.02;;;19.00;99.90;;;;;;5071827;28;21236;-66
2023/08/14 07:38:54;;;;;;;2.83;1.10;;;19.10;99.90;;;;;;5070773;28;20201;-67
2023/08/14 07:41:22;;;;;;;2.17;1.10;;;19.10;99.90;;;;;;5044665;27;1076152;-67
2023/08/14 07:43:49;;;;;;;1.17;1.08;;;19.30;99.90;;;;;;5040893;28;20215;-68
2023/08/14 07:46:17;;;;;;;1.10;1.00;;;19.10;99.90;;;;;;5066986;28;20685;-66
2023/08/14 07:48:45;;;;;;;2.92;1.13;;;;;;;;;;5080030;27;20582;-67
2023/08/14 07:51:11;;;;;;;3.05;1.10;;;19.20;99.90;;;;;;5083630;27;20199;-67
2023/08/14 07:53:38;;;;;;;3.25;1.17;;;19.20;99.90;;;;;;5057959;28;20603;-66
2023/08/14 07:56:05;;;;;;;1.98;1.27;;;19.30;99.90;;;;;;5072373;28;20683;-67
2023/08/14 07:58:33;;;;;;;2.15;1.20;;;19.30;99.90;;;;;;5046550;28;20222;-66
2023/08/14 08:01:00;;;;;;;2.72;1.30;;;19.40;99.90;;;;;;5040607;27;20196;-67
2023/08/14 08:03:27;;;;;;;2.42;1.35;;;19.40;99.90;;;;;;5066031;28;20207;-67
2023/08/14 08:05:54;;;;;;;3.75;1.20;;;19.40;99.90;;;;;;5080802;28;20200;-67
2023/08/14 08:08:21;;;;;;;1.40;1.08;;;19.60;99.90;;;;;;5054315;27;20274;-66
2023/08/14 08:10:47;;;;;;;1.95;1.05;;;19.60;99.90;;;;;;5069737;27;20206;-66
2023/08/14 08:13:14;;;;;;;1.17;1.13;;;19.60;99.90;;;;;;5053809;28;20227;-67
2023/08/14 08:15:42;;;;;;;3.20;1.38;;;19.60;99.90;;;;;;5053718;27;20276;-67
2023/08/14 08:18:09;;;;;;;2.85;1.30;;;19.60;99.90;;;;;;5083992;27;20195;-67
2023/08/14 08:20:36;;;;;;;2.60;1.30;;;19.70;99.90;;;;;;5061608;28;20214;-67
2023/08/14 08:23:03;;;;;;;2.30;1.27;;;19.70;99.90;;;;;;5069189;28;20688;-67
2023/08/14 08:25:30;;;;;;;2.35;1.10;;;18.70;99.90;;;;;;5053361;28;20218;-67
2023/08/14 08:27:57;;;;;;;1.48;1.10;;;19.80;99.90;;;;;;5077541;27;20208;-67
2023/08/14 08:30:24;;;;;;;3.42;1.33;;;19.90;99.90;;;;;;5023117;27;20277;-67
2023/08/14 08:32:52;;;;;;;1.63;1.42;;;19.90;99.90;;;;;;5058566;28;20571;-67
2023/08/14 08:35:19;;;;;;;1.83;1.08;;;19.90;99.90;;;;;;5063492;28;20203;-67
2023/08/14 08:37:46;;;;;;;1.40;1.30;;;19.90;99.90;;;;;;5068566;28;20200;-67
2023/08/14 08:40:13;;;;;;;2.42;1.30;;;19.90;99.90;;;;;;5067171;28;20216;-67
2023/08/14 08:42:40;;;;;;;2.40;1.25;;;19.90;99.90;;;;;;5054136;28;20672;-67
2023/08/14 08:45:10;;;;;;;2.38;1.10;;;19.90;99.90;;;;;;5039783;27;20204;-67
2023/08/14 08:47:39;;;;;;;1.73;1.33;;;19.80;99.90;;;;;;5041280;28;20442;-67
2023/08/14 08:50:10;;;;;;;1.83;1.25;;;20.00;99.90;;;;;;5080078;27;20200;-67
2023/08/14 08:52:37;;;;;;;2.17;1.20;;;20.00;99.90;;;;;;5069842;28;20208;-67
2023/08/14 08:55:05;;;;;;;2.00;1.80;;;20.00;99.90;;;;;;5060134;28;20235;-67
2023/08/14 08:57:32;;;;;;;1.38;1.27;;;20.10;99.90;;;;;;5063099;27;20203;-67
2023/08/14 09:00:00;;;;;;;4.45;1.60;;;20.00;99.90;;;;;;5050271;28;20210;-66
2023/08/14 09:02:28;;;;;;;3.25;1.08;;;20.10;99.90;;;;;;5039384;28;20223;-67
2023/08/14 09:04:55;;;;;;;1.67;1.10;;;20.10;99.90;;;;;;5071149;28;20286;-67
2023/08/14 09:07:23;;;;;;;3.10;1.80;;;20.10;99.90;;;;;;5080363;28;20200;-67
2023/08/14 09:09:50;;;;;;;3.67;1.58;;;20.10;99.90;;;;;;5062569;27;20207;-67
2023/08/14 09:12:17;;;;;;;1.83;1.10;;;20.10;99.90;;;;;;5078121;28;20203;-68
2023/08/14 09:14:44;;;;;;;3.72;1.50;;;20.10;99.90;;;;;;5052353;28;20227;-67
2023/08/14 09:17:11;;;;;;;4.18;1.48;;;20.10;99.90;;;;;;5061178;28;20196;-67
2023/08/14 09:19:40;;;;;;;4.32;1.40;;;20.20;99.90;;;;;;5068924;28;20362;-67
2023/08/14 09:22:07;;;;;;;3.97;1.50;;;20.20;99.90;;;;;;5072330;28;20253;-66
2023/08/14 09:24:37;;;;;;;2.88;1.90;;;20.30;99.90;;;;;;5055522;28;20215;-67
2023/08/14 09:27:04;;;;;;;3.63;1.40;;;20.40;99.90;;;;;;5079204;28;20211;-67
2023/08/14 09:29:32;;;;;;;3.95;1.60;;;20.40;99.90;;;;;;5036384;28;20210;-67
2023/08/14 09:32:01;;;;;;;5.05;1.90;;;20.40;99.90;;;;;;5065676;28;20203;-67
2023/08/14 09:34:30;;;;;;;2.85;1.52;;;20.50;99.90;;;;;;5061822;28;20230;-67
2023/08/14 09:36:58;;;;;;;4.15;1.40;;;20.40;99.90;;;;;;5064739;28;20257;-67
2023/08/14 09:39:25;;;;;;;3.80;1.67;;;20.50;99.90;;;;;;5063118;28;20203;-67
2023/08/14 09:41:54;;;;;;;4.13;1.95;;;20.50;99.90;;;;;;5063720;28;20609;-67
2023/08/14 09:44:21;;;;;;;4.43;1.63;;;20.60;99.90;;;;;;5060752;28;20192;-67
2023/08/14 09:46:51;;;;;;;4.88;1.83;;;20.60;99.90;;;;;;5038624;28;20204;-67
2023/08/14 09:49:18;;;;;;;4.72;1.80;;;20.60;99.90;;;;;;5062090;28;20209;-67
2023/08/14 09:51:54;;;;;;;3.83;1.90;;;20.70;99.90;;;;;;5065799;28;20219;-67
2023/08/14 09:54:29;;;;;;;7.10;1.95;;;20.80;99.90;;;;;;5066091;28;20227;-68
2023/08/14 09:56:59;;;;;;;5.60;1.80;;;20.80;99.90;;;;;;5065022;28;20216;-67
2023/08/14 09:59:26;;;;;;;4.53;1.70;;;20.80;99.90;;;;;;5059935;28;20210;-67
2023/08/14 10:01:54;;;;;;;3.17;1.90;;;20.80;99.90;;;;;;5049395;28;20212;-66
2023/08/14 10:04:23;;;;;;;7.82;2.05;;;20.90;99.90;;;;;;5060130;28;21290;-66
2023/08/14 10:06:51;;;;;;;3.75;1.60;;;20.90;99.90;;;;;;5080314;28;20188;-66
2023/08/14 10:09:22;;;;;;;5.25;1.70;;;21.00;99.90;;;;;;5073097;28;20257;-66
2023/08/14 10:11:50;;;;;;;6.55;1.83;;;21.10;99.90;;;;;;5071810;28;20230;-66
2023/08/14 10:14:23;;;;;;;6.53;1.98;;;21.20;99.90;;;;;;5047744;28;20228;-67
2023/08/14 10:16:53;;;;;;;4.47;1.98;;;21.20;99.90;;;;;;5047295;28;20224;-67
2023/08/14 10:19:24;;;;;;;2.35;1.77;;;21.20;99.90;;;;;;5064054;28;20205;-67
2023/08/14 10:21:53;;;;;;;3.35;1.50;;;21.30;99.90;;;;;;5070919;28;20201;-67
2023/08/14 10:24:22;;;;;;;3.63;1.58;;;21.40;99.90;;;;;;5075253;28;20207;-67
2023/08/14 10:26:49;;;;;;;6.38;2.35;;;21.40;99.90;;;;;;5077294;28;20222;-67
2023/08/14 10:29:18;;;;;;;3.10;1.52;;;21.50;99.90;;;;;;5060271;28;20205;-67
2023/08/14 10:31:46;;;;;;;4.40;2.08;;;21.50;99.90;;;;;;5055365;28;20222;-67
2023/08/14 10:34:14;;;;;;;6.00;1.80;;;21.60;99.90;;;;;;5068658;27;20605;-67
2023/08/14 10:36:41;;;;;;;2.53;1.67;;;21.60;99.90;;;;;;5069325;27;20223;-67
2023/08/14 10:39:09;;;;;;;5.10;2.00;;;21.60;99.90;;;;;;5055750;28;20216;-67
2023/08/14 10:41:36;;;;;;;4.50;2.13;;;21.70;99.90;;;;;;5070832;28;20226;-66
2023/08/14 10:44:07;;;;;;;11.98;2.28;;;21.80;99.90;;;;;;5043805;28;20210;-67
2023/08/14 10:46:38;;;;;;;4.95;1.90;;;21.80;99.90;;;;;;5026291;27;20223;-67
2023/08/14 10:49:05;;;;;;;6.53;2.25;;;21.70;99.90;;;;;;5061112;28;20196;-67
2023/08/14 10:51:32;;;;;;;2.25;1.70;;;21.80;99.90;;;;;;5055563;28;21272;-67
2023/08/14 10:54:13;;;;;;;4.32;2.15;;;21.80;99.90;;;;;;5053679;28;20667;-67
2023/08/14 10:56:42;;;;;;;6.63;1.48;;;21.80;99.90;;;;;;5057761;28;20432;-68
2023/08/14 10:59:20;;;;;;;4.35;1.67;;;21.80;99.90;;;;;;5059662;28;20226;-67
2023/08/14 11:01:52;;;;;;;3.88;1.58;;;21.90;99.90;;;;;;5048359;27;20219;-68
2023/08/14 11:04:19;;;;;;;2.63;1.55;;;22.00;99.90;;;;;;5042565;28;20608;-67
2023/08/14 11:07:05;;;;;;;10.18;1.98;;;22.20;99.90;;;;;;5045156;28;21183;-67
2023/08/14 11:09:33;;;;;;;3.50;1.90;;;22.20;99.90;;;;;;5080076;28;20298;-68
2023/08/14 11:12:03;;;;;;;5.25;1.48;;;22.20;99.90;;;;;;5077473;28;20196;-69
2023/08/14 11:14:30;;;;;;;3.50;1.77;;;22.20;99.90;;;;;;5070977;28;20330;-67
2023/08/14 11:16:58;;;;;;;4.55;1.98;;;22.20;99.90;;;;;;5063536;28;20207;-67
2023/08/14 11:19:25;;;;;;;4.00;1.80;;;22.10;99.90;;;;;;5051748;27;20882;-67
2023/08/14 11:21:53;;;;;;;4.47;1.50;;;22.10;99.90;;;;;;5054082;28;20230;-67
2023/08/14 11:24:20;;;;;;;5.75;1.83;;;22.10;99.90;;;;;;5065124;28;20635;-68
2023/08/14 11:26:46;;;;;;;4.75;2.22;;;22.20;99.90;;;;;;5077758;28;20204;-67
2023/08/14 11:29:13;;;;;;;6.38;1.80;;;22.30;99.90;;;;;;5079287;28;20219;-68
2023/08/14 11:31:43;;;;;;;3.75;1.88;;;22.30;99.90;;;;;;5061801;28;20435;-67
2023/08/14 11:34:12;;;;;;;6.30;1.75;;;22.30;99.90;;;;;;5047493;28;20584;-67
2023/08/14 11:36:41;;;;;;;4.68;1.90;;;22.30;99.90;;;;;;5065693;27;20254;-67
2023/08/14 11:39:08;;;;;;;3.70;1.70;;;22.40;99.90;;;;;;5067840;28;20196;-67
2023/08/14 11:41:35;;;;;;;6.63;2.20;;;22.40;99.90;;;;;;5078300;27;20249;-67
2023/08/14 11:44:03;;;;;;;4.22;1.80;;;22.60;99.90;;;;;;5079017;28;20763;-67
2023/08/14 11:46:30;;;;;;;6.00;1.75;;;22.50;99.90;;;;;;5068410;27;20575;-68
2023/08/14 11:48:57;;;;;;;9.25;2.10;;;22.40;99.90;;;;;;5080587;28;20191;-67
2023/08/14 11:51:26;;;;;;;6.70;1.73;;;22.40;99.90;;;;;;5045078;27;20673;-67
2023/08/14 11:53:53;;;;;;;3.95;1.73;;;22.40;99.90;;;;;;5061163;28;20713;-67
2023/08/14 11:56:20;;;;;;;6.53;1.77;;;22.50;99.90;;;;;;5083876;27;20204;-67
2023/08/14 11:58:47;;;;;;;3.75;1.70;;;22.50;99.90;;;;;;5077132;28;20766;-67
2023/08/14 12:01:14;;;;;;;5.05;1.88;;;22.60;99.90;;;;;;5079480;27;20207;-67
2023/08/14 12:03:41;;;;;;;2.95;1.35;;;22.70;99.90;;;;;;5061399;28;20578;-67
2023/08/14 12:06:08;;;;;;;2.28;1.42;;;22.80;99.90;;;;;;5058642;27;20208;-66
2023/08/14 12:08:38;;;;;;;3.53;1.70;;;22.70;99.90;;;;;;5069922;27;20196;-67
2023/08/14 12:11:06;;;;;;;2.45;1.58;;;22.80;99.90;;;;;;5068423;28;20208;-67
2023/08/14 12:13:33;;;;;;;2.28;1.27;;;22.80;99.90;;;;;;5079901;28;20202;-67
2023/08/14 12:16:08;;;;;;;3.83;1.70;;;22.80;99.90;;;;;;5079358;27;20223;-67
2023/08/14 12:18:35;;;;;;;4.70;1.52;;;22.90;99.90;;;;;;5063340;28;20194;-67
2023/08/14 12:21:02;;;;;;;7.35;1.80;;;22.90;99.90;;;;;;5062376;28;20710;-67
2023/08/14 12:23:29;;;;;;;7.85;1.73;;;22.90;99.90;;;;;;5072228;28;20218;-68
2023/08/14 12:25:57;;;;;;;7.45;1.83;;;22.90;99.90;;;;;;5069521;27;20512;-67
2023/08/14 12:28:24;;;;;;;5.90;1.48;;;22.90;99.90;;;;;;5084488;27;20199;-67
2023/08/14 12:30:51;;;;;;;2.92;1.50;;;23.10;99.90;;;;;;5080854;28;20199;-67
2023/08/14 12:33:18;;;;;;;5.22;1.67;;;23.00;99.90;;;;;;5068169;28;20207;-67
2023/08/14 12:35:45;;;;;;;7.10;1.75;;;23.00;99.90;;;;;;5081595;27;20230;-67
2023/08/14 12:38:11;;;;;;;7.97;1.90;;;23.00;99.90;;;;;;5043534;28;20207;-67
2023/08/14 12:40:39;;;;;;;3.92;1.60;;;23.00;99.90;;;;;;5077281;28;20606;-67
2023/08/14 12:43:07;;;;;;;5.70;1.77;;;23.00;99.90;;;;;;5067998;28;20200;-66
2023/08/14 12:45:34;;;;;;;3.60;1.30;;;23.10;99.90;;;;;;5078580;28;20662;-66
2023/08/14 12:48:01;;;;;;;4.13;1.65;;;23.10;99.90;;;;;;5080805;27;20208;-66
2023/08/14 12:50:28;;;;;;;1.30;1.20;;;23.10;99.90;;;;;;5064499;27;20289;-66